createdAt,value
2022-12-31T00:01:36.353Z,12.98
2022-12-31T00:03:36.323Z,15.07
2022-12-31T00:05:35.151Z,13.63
2022-12-31T00:09:33.236Z,13.35
2022-12-31T00:11:33.258Z,13.95
2022-12-31T00:13:31.506Z,15.43
2022-12-31T00:15:30.083Z,16.33
2022-12-31T00:17:28.394Z,13.18
2022-12-31T00:19:26.670Z,24.67
2022-12-31T00:21:24.731Z,108.72
2022-12-31T00:23:23.233Z,18.92
2022-12-31T00:25:21.509Z,16.92
2022-12-31T00:27:22.374Z,13.82
2022-12-31T00:29:20.612Z,13.48
2022-12-31T00:31:20.822Z,13.45
2022-12-31T00:33:19.086Z,13.13
2022-12-31T00:35:17.231Z,12.88
2022-12-31T00:37:15.562Z,15.43
2022-12-31T00:39:13.773Z,13.73
2022-12-31T00:41:12.467Z,15.10
2022-12-31T00:43:12.202Z,13.60
2022-12-31T00:45:11.144Z,13.80
2022-12-31T00:47:09.361Z,13.95
2022-12-31T00:49:07.665Z,14.20
2022-12-31T00:51:08.441Z,12.95
2022-12-31T00:53:06.637Z,13.32
2022-12-31T00:55:06.100Z,13.23
2022-12-31T00:57:04.396Z,12.98
2022-12-31T00:59:04.056Z,12.57
2022-12-31T01:01:09.917Z,12.57
2022-12-31T01:03:09.034Z,13.60
2022-12-31T01:05:08.886Z,13.07
2022-12-31T01:07:07.043Z,12.98
2022-12-31T01:09:06.552Z,12.10
2022-12-31T01:11:19.621Z,12.13
2022-12-31T01:13:18.007Z,12.10
2022-12-31T01:15:17.847Z,11.48
2022-12-31T01:17:17.304Z,12.73
2022-12-31T01:19:17.632Z,11.02
2022-12-31T01:21:17.008Z,11.48
2022-12-31T01:23:15.342Z,12.05
2022-12-31T01:25:13.520Z,10.98
2022-12-31T01:27:11.783Z,10.50
2022-12-31T01:29:11.101Z,10.95
2022-12-31T01:31:12.581Z,11.85
2022-12-31T01:33:10.875Z,13.30
2022-12-31T01:35:09.867Z,14.40
2022-12-31T01:37:08.113Z,13.88
2022-12-31T01:39:08.031Z,13.13
2022-12-31T01:41:06.475Z,10.90
2022-12-31T01:43:04.846Z,10.05
2022-12-31T01:45:03.421Z,11.05
2022-12-31T01:47:05.286Z,11.57
2022-12-31T01:49:10.308Z,10.18
2022-12-31T01:51:10.904Z,10.68
2022-12-31T01:53:12.113Z,12.98
2022-12-31T01:55:16.177Z,10.15
2022-12-31T01:57:15.184Z,11.75
2022-12-31T01:59:17.552Z,10.88
2022-12-31T02:01:21.683Z,8.40
2022-12-31T02:03:22.820Z,11.38
2022-12-31T02:05:27.334Z,11.73
2022-12-31T02:07:25.917Z,7.43
2022-12-31T02:09:24.365Z,9.00
2022-12-31T02:11:26.196Z,8.90
2022-12-31T02:13:24.669Z,10.40
2022-12-31T02:15:30.994Z,9.85
2022-12-31T02:17:36.711Z,9.23
2022-12-31T02:20:01.387Z,11.45
2022-12-31T02:22:04.691Z,10.25
2022-12-31T02:24:33.578Z,11.10
2022-12-31T02:26:55.881Z,10.50
2022-12-31T02:29:23.141Z,9.30
2022-12-31T02:31:27.770Z,8.93
2022-12-31T02:33:33.375Z,11.95
2022-12-31T02:35:35.020Z,11.50
2022-12-31T02:37:35.616Z,13.02
2022-12-31T02:39:35.337Z,12.10
2022-12-31T02:41:51.769Z,8.88
2022-12-31T02:43:49.889Z,12.40
2022-12-31T02:45:53.393Z,9.00
2022-12-31T02:48:05.059Z,14.02
2022-12-31T02:50:34.354Z,9.48
2022-12-31T02:52:45.430Z,11.13
2022-12-31T02:54:50.530Z,11.27
2022-12-31T02:56:59.368Z,10.88
2022-12-31T02:59:21.798Z,12.30
2022-12-31T03:01:44.032Z,10.38
2022-12-31T03:03:44.187Z,12.15
2022-12-31T03:05:45.279Z,12.23
2022-12-31T03:07:44.994Z,12.95
2022-12-31T03:09:43.294Z,11.13
2022-12-31T03:11:59.364Z,10.35
2022-12-31T03:13:57.543Z,10.85
2022-12-31T03:15:55.939Z,11.15
2022-12-31T03:17:57.812Z,12.48
2022-12-31T03:20:15.147Z,9.98
2022-12-31T03:22:28.671Z,7.70
2022-12-31T03:24:44.211Z,11.60
2022-12-31T03:26:42.602Z,9.57
2022-12-31T03:28:42.631Z,9.23
2022-12-31T03:30:43.284Z,10.88
2022-12-31T03:32:41.836Z,9.88
2022-12-31T03:34:40.168Z,9.48
2022-12-31T03:36:40.017Z,9.93
2022-12-31T03:38:38.800Z,13.43
2022-12-31T03:40:39.958Z,10.68
2022-12-31T03:42:38.516Z,12.10
2022-12-31T03:44:36.809Z,9.65
2022-12-31T03:46:35.028Z,10.23
2022-12-31T03:48:33.372Z,8.82
2022-12-31T03:50:31.813Z,9.48
2022-12-31T03:52:31.369Z,9.35
2022-12-31T03:54:29.832Z,8.98
2022-12-31T03:56:27.887Z,8.32
2022-12-31T03:58:26.171Z,7.53
2022-12-31T04:00:24.398Z,10.93
2022-12-31T04:02:28.582Z,10.35
2022-12-31T04:04:27.660Z,11.15
2022-12-31T04:06:26.538Z,10.15
2022-12-31T04:08:26.489Z,10.35
2022-12-31T04:10:24.637Z,10.43
2022-12-31T04:12:22.972Z,10.82
2022-12-31T04:14:21.258Z,9.05
2022-12-31T04:16:19.468Z,9.45
2022-12-31T04:18:17.660Z,9.55
2022-12-31T04:20:16.594Z,9.25
2022-12-31T04:22:14.819Z,8.38
2022-12-31T04:24:14.499Z,9.00
2022-12-31T04:26:12.635Z,9.10
2022-12-31T04:28:11.032Z,9.20
2022-12-31T04:30:10.422Z,8.35
2022-12-31T04:32:09.532Z,10.27
2022-12-31T04:34:07.824Z,10.52
2022-12-31T04:36:07.819Z,9.75
2022-12-31T04:38:06.741Z,10.27
2022-12-31T04:40:07.638Z,8.50
2022-12-31T04:42:05.848Z,8.27
2022-12-31T04:44:04.286Z,10.98
2022-12-31T04:46:02.480Z,10.55
2022-12-31T04:48:00.649Z,10.23
2022-12-31T04:49:58.845Z,9.07
2022-12-31T04:51:56.985Z,9.98
2022-12-31T04:53:55.202Z,9.02
2022-12-31T04:55:54.855Z,8.00
2022-12-31T04:57:53.017Z,9.43
2022-12-31T04:59:51.270Z,10.05
2022-12-31T05:01:49.668Z,10.95
2022-12-31T05:03:48.123Z,8.05
2022-12-31T05:05:46.465Z,8.25
2022-12-31T05:07:44.622Z,9.05
2022-12-31T05:09:44.677Z,11.85
2022-12-31T05:11:44.301Z,9.02
2022-12-31T05:13:44.254Z,8.93
2022-12-31T05:15:43.094Z,9.77
2022-12-31T05:17:41.389Z,8.68
2022-12-31T05:19:39.655Z,11.65
2022-12-31T05:21:37.841Z,10.75
2022-12-31T05:23:35.917Z,10.18
2022-12-31T05:25:34.532Z,10.43
2022-12-31T05:27:34.064Z,9.20
2022-12-31T05:29:32.401Z,9.70
2022-12-31T05:31:30.660Z,9.82
2022-12-31T05:33:28.846Z,10.80
2022-12-31T05:35:27.102Z,11.95
2022-12-31T05:37:25.413Z,10.48
2022-12-31T05:39:23.529Z,8.77
2022-12-31T05:41:22.826Z,11.10
2022-12-31T05:43:22.487Z,11.65
2022-12-31T05:45:25.251Z,9.45
2022-12-31T05:47:27.115Z,10.40
2022-12-31T05:49:25.481Z,12.80
2022-12-31T05:51:23.670Z,12.25
2022-12-31T05:53:22.009Z,10.27
2022-12-31T05:55:20.327Z,11.25
2022-12-31T05:57:18.573Z,12.35
2022-12-31T05:59:18.068Z,14.25
2022-12-31T06:01:16.372Z,13.82
2022-12-31T06:03:14.777Z,10.02
2022-12-31T06:05:13.049Z,12.80
2022-12-31T06:07:11.262Z,9.73
2022-12-31T06:09:09.420Z,9.60
2022-12-31T06:11:07.674Z,9.60
2022-12-31T06:13:05.924Z,9.35
2022-12-31T06:15:07.280Z,10.50
2022-12-31T06:17:05.495Z,10.73
2022-12-31T06:19:03.991Z,10.00
2022-12-31T06:21:02.454Z,12.38
2022-12-31T06:23:01.177Z,12.65
2022-12-31T06:24:59.411Z,11.45
2022-12-31T06:26:57.779Z,10.93
2022-12-31T06:28:55.927Z,10.80
2022-12-31T06:31:00.727Z,13.80
2022-12-31T06:32:58.939Z,10.30
2022-12-31T06:34:57.021Z,14.30
2022-12-31T06:36:55.297Z,14.07
2022-12-31T06:38:53.544Z,14.60
2022-12-31T06:40:51.911Z,13.30
2022-12-31T06:42:54.626Z,12.75
2022-12-31T06:44:55.936Z,12.02
2022-12-31T06:46:55.703Z,16.55
2022-12-31T06:48:54.031Z,13.52
2022-12-31T06:50:52.336Z,14.02
2022-12-31T06:52:50.406Z,13.95
2022-12-31T06:54:49.410Z,14.38
2022-12-31T06:56:48.215Z,14.63
2022-12-31T06:58:47.214Z,11.55
2022-12-31T07:00:55.091Z,15.25
2022-12-31T07:03:10.923Z,15.25
2022-12-31T07:05:20.864Z,12.73
2022-12-31T07:07:27.351Z,14.15
2022-12-31T07:09:34.393Z,13.85
2022-12-31T07:11:40.535Z,11.60
2022-12-31T07:14:08.650Z,12.57
2022-12-31T07:16:21.692Z,12.57
2022-12-31T07:18:31.540Z,12.55
2022-12-31T07:20:31.189Z,10.45
2022-12-31T07:22:30.024Z,14.73
2022-12-31T07:24:29.247Z,12.75
2022-12-31T07:26:43.851Z,12.80
2022-12-31T07:28:54.767Z,14.15
2022-12-31T07:31:02.906Z,17.60
2022-12-31T07:33:22.069Z,27.48
2022-12-31T07:35:35.325Z,17.52
2022-12-31T07:37:44.856Z,13.93
2022-12-31T07:39:55.532Z,17.38
2022-12-31T07:42:00.865Z,14.52
2022-12-31T07:44:08.527Z,15.55
2022-12-31T07:46:14.416Z,15.85
2022-12-31T07:48:23.526Z,15.95
2022-12-31T07:50:23.727Z,15.90
2022-12-31T07:52:22.835Z,13.38
2022-12-31T07:54:21.273Z,13.48
2022-12-31T07:56:19.544Z,14.25
2022-12-31T07:58:23.067Z,14.40
2022-12-31T08:00:22.011Z,12.50
2022-12-31T08:02:35.322Z,27.15
2022-12-31T08:04:43.732Z,15.20
2022-12-31T08:06:51.841Z,14.98
2022-12-31T08:09:00.215Z,14.00
2022-12-31T08:11:09.994Z,14.27
2022-12-31T08:13:12.263Z,12.57
2022-12-31T08:15:15.535Z,29.27
2022-12-31T08:17:15.439Z,28.85
2022-12-31T08:19:25.963Z,33.67
2022-12-31T08:21:37.105Z,45.35
2022-12-31T08:23:43.825Z,29.48
2022-12-31T08:26:00.588Z,19.17
2022-12-31T08:28:09.075Z,16.38
2022-12-31T08:30:11.309Z,19.30
2022-12-31T08:32:17.241Z,16.40
2022-12-31T08:34:24.193Z,16.40
2022-12-31T08:36:29.713Z,15.27
2022-12-31T08:38:34.931Z,17.13
2022-12-31T08:40:44.982Z,14.82
2022-12-31T08:42:52.709Z,13.68
2022-12-31T08:45:01.787Z,12.93
2022-12-31T08:47:10.395Z,14.63
2022-12-31T08:49:10.925Z,14.10
2022-12-31T08:51:15.675Z,16.00
2022-12-31T08:53:14.238Z,15.43
2022-12-31T08:55:16.373Z,14.00
2022-12-31T08:57:33.720Z,16.88
2022-12-31T08:59:47.035Z,12.88
2022-12-31T09:02:02.337Z,10.75
2022-12-31T09:04:12.759Z,10.27
2022-12-31T09:06:20.375Z,11.90
2022-12-31T09:08:26.021Z,10.33
2022-12-31T09:10:30.024Z,11.33
2022-12-31T09:12:39.217Z,9.07
2022-12-31T09:14:48.300Z,10.93
2022-12-31T09:16:57.308Z,12.30
2022-12-31T09:18:55.543Z,21.00
2022-12-31T09:20:59.057Z,14.90
2022-12-31T09:24:57.241Z,11.20
2022-12-31T09:27:05.945Z,10.83
2022-12-31T09:29:11.562Z,11.90
2022-12-31T09:31:14.747Z,10.97
2022-12-31T09:33:17.942Z,10.02
2022-12-31T09:35:23.816Z,10.93
2022-12-31T09:37:30.302Z,10.53
2022-12-31T09:39:38.342Z,11.17
2022-12-31T09:42:05.832Z,9.90
2022-12-31T09:45:00.151Z,9.20
2022-12-31T09:47:39.114Z,8.80
2022-12-31T09:50:13.933Z,9.37
2022-12-31T09:52:22.359Z,10.15
2022-12-31T09:54:34.904Z,9.83
2022-12-31T09:56:37.585Z,9.93
2022-12-31T09:58:46.002Z,7.00
2022-12-31T10:00:52.860Z,7.13
2022-12-31T10:03:16.675Z,7.63
2022-12-31T10:05:36.836Z,6.70
2022-12-31T10:07:52.816Z,6.23
2022-12-31T10:10:00.990Z,8.30
2022-12-31T10:12:28.371Z,7.97
2022-12-31T10:14:47.391Z,6.70
2022-12-31T10:17:03.360Z,7.60
2022-12-31T10:19:47.332Z,8.83
2022-12-31T10:21:54.878Z,6.23
2022-12-31T10:24:21.338Z,6.57
2022-12-31T10:26:38.115Z,5.17
2022-12-31T10:28:47.830Z,18.27
2022-12-31T10:30:54.962Z,13.07
2022-12-31T10:33:08.331Z,5.40
2022-12-31T10:35:21.135Z,6.33
2022-12-31T10:37:24.374Z,7.23
2022-12-31T10:39:34.470Z,5.43
2022-12-31T10:41:58.524Z,5.87
2022-12-31T10:44:33.034Z,4.95
2022-12-31T10:46:48.912Z,4.90
2022-12-31T10:49:22.395Z,5.53
2022-12-31T10:51:40.384Z,6.17
2022-12-31T10:54:30.360Z,5.33
2022-12-31T10:56:54.641Z,4.27
2022-12-31T10:59:24.114Z,5.13
2022-12-31T11:01:33.871Z,4.53
2022-12-31T11:04:00.052Z,5.30
2022-12-31T11:06:41.839Z,5.47
2022-12-31T11:09:19.219Z,5.40
2022-12-31T11:11:28.527Z,13.03
2022-12-31T11:13:57.394Z,6.70
2022-12-31T11:16:09.619Z,6.57
2022-12-31T11:18:19.065Z,14.83
2022-12-31T11:20:32.981Z,8.13
2022-12-31T11:22:49.153Z,9.02
2022-12-31T11:25:04.495Z,13.17
2022-12-31T11:27:18.981Z,8.37
2022-12-31T11:31:43.302Z,11.80
2022-12-31T11:33:59.271Z,7.67
2022-12-31T11:36:10.385Z,6.57
2022-12-31T11:38:23.933Z,10.43
2022-12-31T11:40:48.515Z,7.07
2022-12-31T11:42:56.503Z,5.53
2022-12-31T11:45:00.872Z,7.07
2022-12-31T11:47:14.174Z,7.05
2022-12-31T11:49:40.667Z,7.03
2022-12-31T11:52:03.968Z,5.70
2022-12-31T11:54:36.150Z,7.95
2022-12-31T11:56:38.584Z,7.35
2022-12-31T11:58:36.960Z,10.93
2022-12-31T12:00:36.223Z,7.60
2022-12-31T12:02:37.579Z,9.32
2022-12-31T12:04:36.077Z,8.57
2022-12-31T12:06:34.486Z,6.88
2022-12-31T12:08:34.924Z,8.23
2022-12-31T12:10:39.668Z,7.90
2022-12-31T12:12:41.337Z,7.65
2022-12-31T12:14:41.928Z,8.27
2022-12-31T12:16:40.277Z,7.10
2022-12-31T12:18:43.618Z,7.90
2022-12-31T12:20:45.298Z,6.65
2022-12-31T12:22:51.492Z,6.57
2022-12-31T12:24:55.285Z,7.55
2022-12-31T12:26:55.353Z,7.68
2022-12-31T12:28:53.943Z,7.00
2022-12-31T12:33:18.192Z,7.43
2022-12-31T12:35:18.472Z,7.05
2022-12-31T12:37:32.400Z,8.38
2022-12-31T12:39:32.624Z,8.27
2022-12-31T12:41:31.179Z,5.70
2022-12-31T12:43:32.378Z,6.20
2022-12-31T12:45:40.568Z,6.00
2022-12-31T12:47:39.025Z,7.18
2022-12-31T12:49:40.892Z,7.25
2022-12-31T12:51:55.806Z,6.38
2022-12-31T12:54:02.812Z,6.47
2022-12-31T12:56:13.332Z,7.20
2022-12-31T12:58:27.850Z,8.25
2022-12-31T13:00:32.023Z,41.65
2022-12-31T13:03:08.330Z,11.43
2022-12-31T13:05:27.661Z,9.55
2022-12-31T13:07:42.219Z,22.27
2022-12-31T13:09:54.131Z,6.60
2022-12-31T13:12:07.721Z,6.82
2022-12-31T13:14:18.733Z,6.90
2022-12-31T13:16:25.547Z,4.72
2022-12-31T13:18:38.565Z,6.35
2022-12-31T13:20:42.549Z,6.88
2022-12-31T13:22:45.975Z,5.78
2022-12-31T13:24:52.964Z,4.90
2022-12-31T13:26:58.636Z,5.03
2022-12-31T13:28:58.116Z,5.45
2022-12-31T13:31:06.530Z,4.15
2022-12-31T13:33:15.856Z,4.00
2022-12-31T13:35:26.618Z,4.72
2022-12-31T13:37:53.690Z,5.43
2022-12-31T13:39:57.843Z,5.07
2022-12-31T13:42:02.333Z,4.32
2022-12-31T13:44:10.378Z,4.60
2022-12-31T13:46:19.798Z,3.25
2022-12-31T13:48:26.116Z,3.70
2022-12-31T13:50:29.666Z,3.40
2022-12-31T13:52:35.794Z,4.03
2022-12-31T13:54:42.658Z,3.13
2022-12-31T13:56:43.823Z,3.42
2022-12-31T13:58:47.084Z,3.03
2022-12-31T14:00:49.068Z,4.00
2022-12-31T14:02:55.060Z,5.80
2022-12-31T14:05:00.454Z,5.25
2022-12-31T14:07:04.383Z,5.28
2022-12-31T14:09:03.013Z,5.43
2022-12-31T14:11:08.022Z,5.38
2022-12-31T14:13:20.857Z,4.85
2022-12-31T14:15:24.955Z,6.32
2022-12-31T14:17:32.976Z,5.93
2022-12-31T14:19:46.391Z,7.18
2022-12-31T14:21:50.223Z,6.80
2022-12-31T14:23:54.375Z,6.03
2022-12-31T14:25:57.072Z,5.38
2022-12-31T14:27:57.587Z,5.53
2022-12-31T14:30:00.189Z,6.22
2022-12-31T14:32:20.312Z,5.15
2022-12-31T14:34:27.007Z,7.78
2022-12-31T14:36:40.647Z,8.02
2022-12-31T14:38:52.571Z,10.57
2022-12-31T14:41:03.955Z,8.30
2022-12-31T14:43:13.304Z,8.35
2022-12-31T14:45:29.028Z,6.55
2022-12-31T14:47:38.697Z,6.05
2022-12-31T14:49:47.858Z,6.50
2022-12-31T14:51:46.308Z,5.57
2022-12-31T14:53:56.829Z,6.78
2022-12-31T14:55:59.933Z,7.53
2022-12-31T14:58:27.329Z,6.40
2022-12-31T15:00:30.581Z,7.72
2022-12-31T15:02:31.004Z,7.25
2022-12-31T15:04:42.955Z,10.10
2022-12-31T15:06:59.575Z,10.82
2022-12-31T15:09:08.565Z,13.00
2022-12-31T15:11:19.321Z,12.63
2022-12-31T15:13:29.130Z,22.40
2022-12-31T15:15:50.165Z,12.05
2022-12-31T15:18:02.832Z,9.48
2022-12-31T15:20:20.331Z,9.10
2022-12-31T15:22:36.104Z,7.47
2022-12-31T15:24:35.925Z,8.43
2022-12-31T15:26:50.998Z,9.90
2022-12-31T15:28:58.387Z,11.45
2022-12-31T15:31:02.548Z,8.10
2022-12-31T15:33:04.521Z,8.60
2022-12-31T15:35:05.017Z,7.65
2022-12-31T15:37:06.572Z,7.28
2022-12-31T15:39:25.897Z,8.30
2022-12-31T15:41:37.593Z,6.78
2022-12-31T15:43:45.143Z,8.32
2022-12-31T15:45:44.285Z,7.55
2022-12-31T15:47:47.112Z,7.20
2022-12-31T15:49:47.993Z,8.40
2022-12-31T15:51:49.580Z,9.82
2022-12-31T15:53:53.202Z,9.30
2022-12-31T15:55:54.947Z,8.43
2022-12-31T15:57:57.885Z,11.05
2022-12-31T15:59:59.501Z,7.32
2022-12-31T16:01:58.511Z,13.13
2022-12-31T16:03:59.079Z,7.70
2022-12-31T16:06:02.029Z,8.15
2022-12-31T16:08:01.213Z,5.22
2022-12-31T16:10:03.845Z,7.65
2022-12-31T16:12:03.745Z,7.28
2022-12-31T16:14:04.786Z,10.73
2022-12-31T16:16:19.911Z,9.13
2022-12-31T16:18:22.741Z,6.53
2022-12-31T16:20:23.819Z,7.00
2022-12-31T16:22:27.238Z,8.07
2022-12-31T16:24:29.110Z,6.88
2022-12-31T16:26:33.503Z,7.93
2022-12-31T16:30:35.862Z,7.45
2022-12-31T16:32:36.486Z,5.18
2022-12-31T16:34:38.519Z,5.50
2022-12-31T16:36:36.808Z,5.22
2022-12-31T16:38:35.922Z,5.38
2022-12-31T16:40:34.339Z,4.65
2022-12-31T16:42:32.630Z,5.38
2022-12-31T16:44:31.972Z,4.90
2022-12-31T16:46:33.380Z,5.35
2022-12-31T16:48:31.688Z,7.35
2022-12-31T16:50:30.673Z,7.32
2022-12-31T16:52:33.222Z,4.85
2022-12-31T16:54:35.579Z,4.88
2022-12-31T16:56:37.663Z,10.45
2022-12-31T16:58:38.433Z,7.07
2022-12-31T17:00:37.837Z,21.60
2022-12-31T17:02:41.819Z,8.93
2022-12-31T17:04:47.000Z,6.85
2022-12-31T17:06:50.964Z,7.28
2022-12-31T17:09:03.603Z,6.90
2022-12-31T17:11:04.695Z,7.40
2022-12-31T17:15:27.041Z,10.13
2022-12-31T17:17:28.708Z,10.18
2022-12-31T17:19:38.880Z,9.13
2022-12-31T17:21:37.157Z,10.48
2022-12-31T17:23:37.825Z,12.38
2022-12-31T17:25:38.233Z,16.08
2022-12-31T17:27:37.632Z,28.15
2022-12-31T17:29:36.591Z,28.92
2022-12-31T17:31:36.973Z,19.00
2022-12-31T17:33:35.356Z,24.13
2022-12-31T17:35:36.809Z,18.95
2022-12-31T17:37:35.770Z,19.23
2022-12-31T17:39:48.236Z,16.45
2022-12-31T17:41:47.679Z,16.85
2022-12-31T17:43:46.203Z,15.88
2022-12-31T17:45:47.315Z,14.70
2022-12-31T17:47:51.025Z,15.23
2022-12-31T17:49:49.297Z,19.60
2022-12-31T17:51:49.202Z,17.48
2022-12-31T17:53:47.557Z,19.33
2022-12-31T17:55:48.281Z,18.25
2022-12-31T17:57:51.866Z,38.33
2022-12-31T17:59:50.163Z,47.05
2022-12-31T18:01:49.420Z,30.67
2022-12-31T18:03:48.987Z,25.13
2022-12-31T18:05:47.472Z,21.33
2022-12-31T18:07:47.225Z,27.23
2022-12-31T18:09:45.422Z,37.05
2022-12-31T18:11:43.801Z,24.67
2022-12-31T18:13:41.995Z,26.27
2022-12-31T18:15:41.491Z,35.60
2022-12-31T18:17:39.767Z,31.33
2022-12-31T18:20:03.616Z,24.05
2022-12-31T18:22:00.422Z,25.13
2022-12-31T18:25:58.223Z,22.58
2022-12-31T18:27:56.369Z,21.65
2022-12-31T18:29:59.106Z,27.10
2022-12-31T18:32:02.455Z,24.50
2022-12-31T18:34:00.817Z,24.58
2022-12-31T18:36:14.494Z,24.55
2022-12-31T18:38:14.788Z,22.58
2022-12-31T18:40:15.292Z,25.15
2022-12-31T18:42:14.898Z,21.83
2022-12-31T18:44:14.945Z,22.05
2022-12-31T18:46:14.268Z,22.35
2022-12-31T18:48:13.407Z,32.00
2022-12-31T18:50:15.139Z,31.02
2022-12-31T18:52:14.570Z,29.35
2022-12-31T18:54:17.869Z,24.40
2022-12-31T18:56:19.605Z,22.58
2022-12-31T18:58:17.810Z,24.23
2022-12-31T19:00:16.696Z,25.67
2022-12-31T19:02:19.330Z,25.60
2022-12-31T19:04:26.504Z,34.35
2022-12-31T19:06:26.226Z,28.58
2022-12-31T19:08:24.897Z,24.48
2022-12-31T19:10:23.404Z,26.13
2022-12-31T19:12:23.195Z,30.35
2022-12-31T19:14:24.777Z,29.88
2022-12-31T19:16:22.998Z,35.63
2022-12-31T19:18:21.355Z,28.63
2022-12-31T19:20:26.463Z,29.25
2022-12-31T19:22:24.925Z,24.83
2022-12-31T19:24:26.750Z,22.80
2022-12-31T19:26:25.020Z,24.13
2022-12-31T19:28:26.989Z,26.10
2022-12-31T19:30:27.565Z,23.10
2022-12-31T19:32:25.740Z,29.90
2022-12-31T19:34:23.921Z,27.77
2022-12-31T19:36:22.337Z,27.10
2022-12-31T19:38:23.146Z,27.23
2022-12-31T19:40:23.956Z,28.52
2022-12-31T19:42:22.237Z,26.92
2022-12-31T19:44:21.993Z,28.60
2022-12-31T19:46:20.631Z,26.70
2022-12-31T19:48:25.798Z,32.55
2022-12-31T19:50:29.447Z,31.17
2022-12-31T19:52:27.713Z,32.13
2022-12-31T19:54:25.983Z,32.65
2022-12-31T19:56:24.148Z,32.25
2022-12-31T19:58:25.682Z,30.90
2022-12-31T20:00:25.418Z,30.70
2022-12-31T20:02:23.794Z,31.77
2022-12-31T20:04:22.564Z,33.15
2022-12-31T20:06:20.931Z,31.48
2022-12-31T20:08:20.426Z,33.88
2022-12-31T20:10:18.737Z,32.38
2022-12-31T20:12:17.318Z,47.45
2022-12-31T20:14:15.652Z,50.08
2022-12-31T20:16:17.140Z,42.03
2022-12-31T20:18:21.028Z,32.33
2022-12-31T20:20:19.205Z,46.30
2022-12-31T20:22:17.600Z,43.83
2022-12-31T20:24:15.950Z,39.53
2022-12-31T20:26:14.232Z,35.75
2022-12-31T20:28:12.631Z,33.22
2022-12-31T20:30:12.767Z,33.80
2022-12-31T20:32:12.264Z,28.52
2022-12-31T20:34:11.615Z,31.90
2022-12-31T20:36:11.957Z,30.85
2022-12-31T20:38:10.725Z,23.17
2022-12-31T20:40:10.714Z,23.52
2022-12-31T20:42:08.907Z,23.25
2022-12-31T20:44:07.248Z,25.88
2022-12-31T20:46:14.423Z,29.05
2022-12-31T20:48:14.732Z,28.15
2022-12-31T20:50:13.104Z,30.80
2022-12-31T20:52:11.415Z,32.17
2022-12-31T20:54:11.714Z,30.05
2022-12-31T20:56:10.494Z,33.83
2022-12-31T20:58:08.658Z,25.77
2022-12-31T21:00:12.328Z,28.48
2022-12-31T21:02:29.563Z,30.45
2022-12-31T21:04:35.094Z,30.33
2022-12-31T21:06:34.252Z,29.10
2022-12-31T21:08:35.031Z,30.80
2022-12-31T21:10:34.688Z,32.55
2022-12-31T21:12:43.886Z,37.97
2022-12-31T21:14:44.868Z,31.73
2022-12-31T21:16:43.307Z,30.60
2022-12-31T21:18:41.515Z,29.38
2022-12-31T21:20:41.064Z,32.83
2022-12-31T21:22:39.536Z,32.35
2022-12-31T21:24:39.243Z,34.60
2022-12-31T21:26:37.909Z,31.48
2022-12-31T21:28:36.158Z,29.45
2022-12-31T21:30:34.773Z,27.85
2022-12-31T21:32:32.906Z,29.40
2022-12-31T21:34:31.156Z,27.10
2022-12-31T21:36:30.634Z,24.35
2022-12-31T21:38:29.885Z,24.75
2022-12-31T21:40:28.210Z,26.17
2022-12-31T21:42:26.400Z,23.90
2022-12-31T21:44:26.103Z,25.48
2022-12-31T21:46:24.507Z,19.75
2022-12-31T21:48:22.123Z,21.83
2022-12-31T21:50:20.506Z,24.30
2022-12-31T21:52:30.802Z,33.22
2022-12-31T21:54:46.276Z,25.25
2022-12-31T21:56:44.479Z,24.70
2022-12-31T21:58:44.309Z,21.98
2022-12-31T22:01:00.043Z,24.13
2022-12-31T22:03:16.163Z,28.38
2022-12-31T22:05:21.412Z,27.77
2022-12-31T22:07:24.578Z,35.55
2022-12-31T22:09:22.907Z,30.10
2022-12-31T22:11:22.670Z,38.95
2022-12-31T22:13:20.933Z,35.42
2022-12-31T22:15:19.209Z,39.20
2022-12-31T22:17:17.513Z,45.28
2022-12-31T22:19:15.756Z,40.72
2022-12-31T22:21:19.385Z,40.45
2022-12-31T22:23:19.691Z,41.28
2022-12-31T22:25:17.997Z,44.25
2022-12-31T22:27:28.816Z,49.65
2022-12-31T22:29:28.069Z,48.78
2022-12-31T22:31:29.032Z,67.65
2022-12-31T22:33:27.393Z,41.40
2022-12-31T22:35:25.897Z,34.95
2022-12-31T22:39:45.076Z,34.45
2022-12-31T22:41:43.605Z,35.00
2022-12-31T22:43:44.070Z,37.25
2022-12-31T22:45:42.175Z,40.58
2022-12-31T22:47:40.398Z,42.60
2022-12-31T22:49:38.552Z,47.20
2022-12-31T22:51:56.859Z,69.75
2022-12-31T22:53:55.049Z,58.03
2022-12-31T22:55:56.508Z,63.70
2022-12-31T22:57:54.866Z,56.50
2022-12-31T22:59:53.093Z,51.70
2022-12-31T23:01:51.452Z,54.70
2022-12-31T23:03:51.481Z,57.00
2022-12-31T23:05:51.492Z,48.03
2022-12-31T23:07:49.933Z,49.78
2022-12-31T23:10:05.312Z,55.42
2022-12-31T23:12:07.084Z,50.45
2022-12-31T23:14:23.344Z,46.53
2022-12-31T23:16:38.921Z,49.05
2022-12-31T23:18:54.339Z,49.08
2022-12-31T23:21:10.053Z,46.25
2022-12-31T23:23:10.053Z,49.30
2022-12-31T23:25:09.047Z,48.67
2022-12-31T23:27:09.673Z,44.20
2022-12-31T23:29:07.999Z,60.00
2022-12-31T23:31:07.360Z,49.95
2022-12-31T23:33:05.807Z,50.30
2022-12-31T23:35:09.558Z,53.85
2022-12-31T23:37:08.322Z,49.67
2022-12-31T23:39:06.679Z,48.95
2022-12-31T23:41:13.136Z,46.22
2022-12-31T23:43:20.907Z,52.13
2022-12-31T23:45:19.100Z,46.00
2022-12-31T23:47:17.345Z,49.53
2022-12-31T23:49:15.586Z,44.25
2022-12-31T23:51:13.709Z,57.72
2022-12-31T23:53:11.948Z,53.45
2022-12-31T23:55:10.518Z,44.10
2022-12-31T23:57:08.774Z,59.47
2022-12-31T23:59:08.526Z,73.20
